Time;durP1;ratioP1;P1;durP2;ratioP2;P2;SDS_P1;SDS_P2;PMS_P1;PMS_P2;Temp;Humidity;BMP_temperature;BMP_pressure;BME280_temperature;BME280_humidity;BME280_pressure;Samples;Min_cycle;Max_cycle;Signal;HPM_P1;HPM_P2
2020/12/31 00:00:46;;;;;;;30.55;19.83;;;4.70;99.90;;;;;;5040685;28;20318;-41
2020/12/31 00:03:13;;;;;;;21.17;18.70;;;4.70;99.90;;;;;;5039553;28;20638;-41
2020/12/31 00:05:39;;;;;;;23.67;20.40;;;4.60;99.90;;;;;;5037826;28;20682;-42
2020/12/31 00:08:07;;;;;;;26.90;20.93;;;4.50;99.90;;;;;;5041682;28;20216;-43
2020/12/31 00:10:33;;;;;;;26.60;19.87;;;4.50;99.90;;;;;;5038826;28;20226;-42
2020/12/31 00:13:00;;;;;;;24.83;19.17;;;4.40;99.90;;;;;;5041960;28;20294;-43
2020/12/31 00:15:27;;;;;;;23.63;18.57;;;4.40;99.90;;;;;;5039101;28;20256;-43
2020/12/31 00:17:53;;;;;;;23.57;17.83;;;4.20;99.90;;;;;;5040741;28;20321;-42
2020/12/31 00:20:20;;;;;;;22.88;16.45;;;4.10;99.90;;;;;;5043653;28;20195;-42
2020/12/31 00:22:47;;;;;;;23.03;17.13;;;4.10;99.90;;;;;;5044616;28;20272;-43
2020/12/31 00:25:14;;;;;;;23.83;18.73;;;4.10;99.90;;;;;;5041473;28;20245;-43
2020/12/31 00:27:40;;;;;;;25.23;18.23;;;4.10;99.90;;;;;;5038579;28;20580;-43
2020/12/31 00:30:08;;;;;;;23.13;18.63;;;4.00;99.90;;;;;;5041537;28;20239;-42
2020/12/31 00:32:34;;;;;;;20.47;17.13;;;3.90;99.90;;;;;;5041384;28;20309;-42
2020/12/31 00:35:01;;;;;;;24.20;18.60;;;3.80;99.90;;;;;;5042149;28;20238;-43
2020/12/31 00:37:34;;;;;;;24.63;19.30;;;3.70;99.90;;;;;;5048497;28;20286;-42
2020/12/31 00:40:00;;;;;;;22.17;16.67;;;3.70;99.90;;;;;;5050179;28;20203;-43
2020/12/31 00:42:27;;;;;;;22.43;18.30;;;3.70;99.90;;;;;;5045799;28;20215;-40
2020/12/31 00:44:54;;;;;;;25.10;17.80;;;3.60;99.90;;;;;;5049849;28;20196;-42
2020/12/31 00:47:21;;;;;;;21.77;16.33;;;3.60;99.90;;;;;;5048307;28;20222;-42
2020/12/31 00:49:47;;;;;;;21.15;16.60;;;3.60;99.90;;;;;;5033134;28;20229;-43
2020/12/31 00:52:14;;;;;;;22.93;17.17;;;3.70;99.90;;;;;;5044217;28;20636;-41
2020/12/31 00:54:41;;;;;;;19.67;16.05;;;3.80;99.90;;;;;;5030959;28;20239;-42
2020/12/31 00:57:09;;;;;;;21.90;17.27;;;3.80;99.90;;;;;;5028878;28;20199;-42
2020/12/31 00:59:37;;;;;;;27.37;18.03;;;3.80;99.90;;;;;;5025801;28;20351;-42
2020/12/31 01:02:06;;;;;;;23.27;15.90;;;3.70;99.90;;;;;;5034230;28;20226;-42
2020/12/31 01:04:32;;;;;;;22.07;17.67;;;3.80;99.90;;;;;;5027397;28;20295;-41
2020/12/31 01:06:59;;;;;;;20.80;14.73;;;3.90;99.90;;;;;;5043333;28;20227;-40
2020/12/31 01:09:25;;;;;;;21.23;18.17;;;3.60;99.90;;;;;;5042782;28;20596;-41
2020/12/31 01:11:55;;;;;;;19.33;15.53;;;3.60;99.90;;;;;;5042912;28;20308;-42
2020/12/31 01:14:22;;;;;;;19.00;15.77;;;3.60;99.90;;;;;;5046662;28;20203;-41
2020/12/31 01:16:50;;;;;;;21.20;15.30;;;3.60;99.90;;;;;;5038536;28;20215;-42
2020/12/31 01:19:16;;;;;;;18.33;15.57;;;3.60;99.90;;;;;;5042181;28;20185;-42
2020/12/31 01:21:45;;;;;;;18.13;15.93;;;3.60;99.90;;;;;;5038127;28;20339;-43
2020/12/31 01:24:11;;;;;;;20.20;15.83;;;3.60;99.90;;;;;;5039699;28;20204;-42
2020/12/31 01:26:38;;;;;;;16.80;14.40;;;3.60;99.90;;;;;;5043415;28;20196;-42
2020/12/31 01:29:05;;;;;;;17.63;14.70;;;3.60;99.90;;;;;;5041699;28;20212;-46
2020/12/31 01:31:32;;;;;;;20.43;14.97;;;3.50;99.90;;;;;;5038179;28;20235;-41
2020/12/31 01:34:00;;;;;;;16.90;13.60;;;3.40;99.90;;;;;;5041894;28;20691;-43
2020/12/31 01:36:27;;;;;;;18.70;15.13;;;3.40;99.90;;;;;;5044696;28;20199;-41
2020/12/31 01:38:54;;;;;;;17.53;15.50;;;3.50;99.90;;;;;;5047243;28;20266;-43
2020/12/31 01:41:25;;;;;;;22.07;15.40;;;3.40;99.90;;;;;;5041844;28;20215;-48
2020/12/31 01:44:05;;;;;;;18.17;12.90;;;3.30;99.90;;;;;;5035439;28;20204;-43
2020/12/31 01:46:34;;;;;;;17.30;13.47;;;3.30;99.90;;;;;;5041522;28;20200;-44
2020/12/31 01:49:02;;;;;;;17.17;13.43;;;3.30;99.90;;;;;;5042657;28;20251;-44
2020/12/31 01:51:29;;;;;;;20.20;12.80;;;3.20;99.90;;;;;;5047705;28;20223;-43
2020/12/31 01:53:57;;;;;;;16.63;11.90;;;3.40;99.90;;;;;;5039887;28;20195;-43
2020/12/31 01:56:28;;;;;;;16.40;13.02;;;3.20;99.90;;;;;;5036116;28;20205;-41
2020/12/31 01:58:55;;;;;;;17.10;11.73;;;3.20;99.90;;;;;;5045868;28;20195;-43
2020/12/31 02:01:22;;;;;;;13.97;10.87;;;3.20;99.90;;;;;;5040163;28;20338;-46
2020/12/31 02:03:50;;;;;;;13.67;12.20;;;3.20;99.90;;;;;;5043321;28;20645;-43
2020/12/31 02:06:17;;;;;;;17.00;11.47;;;3.10;99.90;;;;;;5042610;28;20266;-44
2020/12/31 02:08:45;;;;;;;15.47;11.47;;;3.10;99.90;;;;;;5042365;28;20641;-46
2020/12/31 02:11:14;;;;;;;17.60;12.57;;;3.20;99.90;;;;;;5041869;28;20216;-43
2020/12/31 02:13:41;;;;;;;15.87;11.90;;;3.20;99.90;;;;;;5040147;28;20630;-44
2020/12/31 02:16:11;;;;;;;17.40;13.03;;;3.20;99.90;;;;;;5043690;28;20202;-43
2020/12/31 02:18:53;;;;;;;19.10;11.30;;;3.00;99.90;;;;;;5041278;28;20287;-44
2020/12/31 02:21:24;;;;;;;13.60;11.33;;;3.00;99.90;;;;;;5046023;28;20576;-44
2020/12/31 02:23:52;;;;;;;13.53;10.73;;;3.00;99.90;;;;;;5040757;28;20630;-43
2020/12/31 02:26:21;;;;;;;16.80;11.93;;;2.90;99.90;;;;;;5023409;28;20225;-43
2020/12/31 02:28:47;;;;;;;13.63;11.67;;;2.90;99.90;;;;;;5023720;28;20218;-44
2020/12/31 02:31:15;;;;;;;21.27;13.23;;;2.80;99.90;;;;;;5041958;28;20239;-43
2020/12/31 02:33:45;;;;;;;13.03;11.63;;;2.80;99.90;;;;;;5040192;28;20573;-42
2020/12/31 02:36:12;;;;;;;15.67;11.67;;;2.80;99.90;;;;;;5040488;28;20960;-43
2020/12/31 02:38:38;;;;;;;15.90;12.70;;;2.80;99.90;;;;;;5041987;28;20562;-42
2020/12/31 02:41:06;;;;;;;16.97;12.47;;;2.80;99.90;;;;;;5033093;28;20695;-42
2020/12/31 02:43:34;;;;;;;15.73;12.10;;;2.80;99.90;;;;;;5041148;28;20203;-43
2020/12/31 02:46:01;;;;;;;13.53;11.43;;;2.80;99.90;;;;;;5042634;28;20261;-41
2020/12/31 02:48:28;;;;;;;18.23;13.33;;;2.80;99.90;;;;;;5039915;28;20741;-42
2020/12/31 02:50:54;;;;;;;16.97;12.47;;;2.80;99.90;;;;;;5022924;28;20302;-44
2020/12/31 02:53:21;;;;;;;16.27;13.23;;;2.70;99.90;;;;;;5039969;28;20204;-43
2020/12/31 02:55:47;;;;;;;14.07;11.83;;;2.70;99.90;;;;;;5043840;28;20203;-42
2020/12/31 02:58:15;;;;;;;15.17;11.30;;;2.70;99.90;;;;;;5022697;28;20203;-42
2020/12/31 03:00:42;;;;;;;12.93;11.53;;;2.60;99.90;;;;;;5037141;28;20553;-42
2020/12/31 03:03:08;;;;;;;16.53;11.53;;;2.60;99.90;;;;;;5033926;28;20283;-43
2020/12/31 03:05:35;;;;;;;15.00;12.40;;;2.60;99.90;;;;;;5033681;28;20208;-43
2020/12/31 03:08:02;;;;;;;12.33;11.03;;;2.60;99.90;;;;;;5033561;28;20195;-43
2020/12/31 03:10:28;;;;;;;15.17;11.70;;;2.50;99.90;;;;;;5015400;28;20247;-42
2020/12/31 03:12:55;;;;;;;14.85;11.68;;;2.50;99.90;;;;;;5047126;28;20206;-42
2020/12/31 03:15:23;;;;;;;13.20;11.77;;;2.50;99.90;;;;;;5039386;28;20215;-43
2020/12/31 03:17:51;;;;;;;12.53;11.20;;;2.60;99.90;;;;;;5050697;28;20226;-43
2020/12/31 03:20:18;;;;;;;14.37;10.87;;;2.60;99.90;;;;;;5049147;28;20591;-41
2020/12/31 03:22:44;;;;;;;13.60;11.37;;;2.70;99.90;;;;;;5050875;28;20571;-42
2020/12/31 03:25:11;;;;;;;13.13;10.53;;;2.70;99.90;;;;;;5048424;28;20210;-40
2020/12/31 03:27:37;;;;;;;12.53;11.23;;;2.80;99.90;;;;;;5039036;28;20195;-40
2020/12/31 03:30:04;;;;;;;11.67;10.20;;;2.80;99.90;;;;;;5020476;28;20227;-40
2020/12/31 03:32:32;;;;;;;14.23;11.03;;;2.90;99.90;;;;;;5037921;28;20225;-42
2020/12/31 03:34:58;;;;;;;12.90;11.23;;;2.90;99.90;;;;;;5054749;28;20203;-42
2020/12/31 03:37:25;;;;;;;10.77;9.67;;;3.00;99.90;;;;;;5054634;28;20206;-42
2020/12/31 03:39:52;;;;;;;12.90;11.17;;;3.10;99.90;;;;;;5055998;28;20357;-41
2020/12/31 03:42:19;;;;;;;13.20;10.80;;;3.10;99.90;;;;;;5054970;28;20219;-42
2020/12/31 03:44:45;;;;;;;11.63;9.60;;;3.20;99.90;;;;;;5055373;28;20206;-43
2020/12/31 03:47:12;;;;;;;11.97;8.90;;;3.20;99.90;;;;;;5051781;28;20291;-41
2020/12/31 03:49:39;;;;;;;12.27;9.90;;;3.20;99.90;;;;;;5052397;28;20215;-42
2020/12/31 03:52:06;;;;;;;10.93;9.40;;;3.20;99.90;;;;;;5045031;28;20230;-42
2020/12/31 03:54:33;;;;;;;11.00;8.83;;;3.20;99.90;;;;;;5052231;28;20289;-41
2020/12/31 03:56:59;;;;;;;10.07;9.07;;;3.20;99.90;;;;;;5038644;28;20199;-42
2020/12/31 03:59:26;;;;;;;8.77;7.97;;;3.20;99.90;;;;;;5034257;28;20219;-42
2020/12/31 04:01:52;;;;;;;11.33;8.20;;;3.20;99.90;;;;;;5035095;28;20239;-41
2020/12/31 04:04:19;;;;;;;11.40;8.50;;;3.30;99.90;;;;;;5035738;28;20284;-41
2020/12/31 04:06:46;;;;;;;9.27;7.83;;;3.30;99.90;;;;;;5049999;28;20295;-41
2020/12/31 04:09:12;;;;;;;9.40;8.13;;;3.30;99.90;;;;;;5049658;28;20219;-42
2020/12/31 04:11:39;;;;;;;8.97;8.07;;;3.30;99.90;;;;;;5034632;28;20291;-41
2020/12/31 04:14:05;;;;;;;9.10;8.03;;;3.30;99.90;;;;;;5030280;28;20196;-41
2020/12/31 04:16:32;;;;;;;8.20;7.40;;;3.30;99.90;;;;;;5031396;28;20187;-41
2020/12/31 04:18:58;;;;;;;9.07;7.23;;;3.40;99.90;;;;;;5030105;28;20198;-42
2020/12/31 04:21:25;;;;;;;8.33;7.53;;;3.40;99.90;;;;;;5031367;28;20254;-41
2020/12/31 04:23:52;;;;;;;9.27;8.33;;;3.40;99.90;;;;;;5030151;28;20200;-41
2020/12/31 04:26:19;;;;;;;7.23;6.53;;;3.40;99.90;;;;;;5041175;28;20198;-41
2020/12/31 04:28:45;;;;;;;7.47;6.67;;;3.40;99.90;;;;;;5046889;28;20206;-42
2020/12/31 04:31:12;;;;;;;8.10;7.30;;;3.30;99.90;;;;;;5048145;28;20305;-42
2020/12/31 04:33:38;;;;;;;7.87;7.13;;;3.30;99.90;;;;;;5030550;28;20204;-43
2020/12/31 04:36:05;;;;;;;8.47;7.03;;;3.30;99.90;;;;;;5042556;28;20350;-42
2020/12/31 04:38:31;;;;;;;8.10;7.30;;;3.30;99.90;;;;;;5047273;28;20218;-43
2020/12/31 04:41:02;;;;;;;8.00;6.43;;;3.30;99.90;;;;;;5051360;28;20223;-41
2020/12/31 04:43:29;;;;;;;9.60;7.47;;;3.20;99.90;;;;;;5051124;28;20696;-41
2020/12/31 04:45:58;;;;;;;10.30;6.57;;;3.20;99.90;;;;;;5049233;28;20684;-42
2020/12/31 04:48:38;;;;;;;7.93;5.80;;;3.30;99.90;;;;;;5048730;28;20545;-40
2020/12/31 04:51:07;;;;;;;5.40;4.90;;;3.30;99.90;;;;;;5030867;28;20258;-41
2020/12/31 04:53:34;;;;;;;6.53;5.30;;;3.30;99.90;;;;;;5040433;28;20218;-40
2020/12/31 04:56:02;;;;;;;7.43;5.23;;;3.40;99.90;;;;;;5050468;28;20301;-42
2020/12/31 04:58:29;;;;;;;6.67;5.17;;;3.30;99.90;;;;;;5045326;28;20286;-41
2020/12/31 05:00:56;;;;;;;6.43;5.27;;;3.30;99.90;;;;;;5049940;28;20215;-40
2020/12/31 05:03:23;;;;;;;5.03;4.53;;;3.30;99.90;;;;;;5034446;22;20239;-40
2020/12/31 05:05:53;;;;;;;5.60;5.00;;;3.20;99.90;;;;;;5037352;28;20279;-40
2020/12/31 05:08:26;;;;;;;7.07;6.33;;;3.20;99.90;;;;;;5042386;28;20227;-40
2020/12/31 05:10:53;;;;;;;8.60;6.50;;;3.20;99.90;;;;;;5048984;28;20283;-43
2020/12/31 05:13:20;;;;;;;6.97;6.17;;;3.10;99.90;;;;;;5032112;28;20199;-41
2020/12/31 05:15:47;;;;;;;8.50;6.40;;;3.20;99.90;;;;;;5040225;28;20531;-41
2020/12/31 05:18:21;;;;;;;10.23;5.63;;;3.20;99.90;;;;;;5034226;28;20200;-38
2020/12/31 05:20:50;;;;;;;7.93;5.97;;;3.20;99.90;;;;;;5049120;28;20219;-40
2020/12/31 05:23:18;;;;;;;6.43;5.80;;;3.20;99.90;;;;;;5050418;28;20211;-39
2020/12/31 05:25:44;;;;;;;7.37;6.67;;;3.30;99.90;;;;;;5053408;28;20238;-40
2020/12/31 05:28:26;;;;;;;7.07;6.27;;;3.30;99.90;;;;;;5053748;28;20199;-40
2020/12/31 05:30:54;;;;;;;8.87;7.07;;;3.30;99.90;;;;;;5039937;28;20717;-39
2020/12/31 05:33:28;;;;;;;11.50;5.87;;;3.30;99.90;;;;;;5034012;28;20242;-41
2020/12/31 05:36:15;;;;;;;7.87;5.97;;;3.20;99.90;;;;;;5050500;28;20219;-39
2020/12/31 05:38:43;;;;;;;7.60;6.70;;;3.00;99.90;;;;;;5052795;28;20233;-40
2020/12/31 05:41:11;;;;;;;7.23;6.03;;;3.00;99.90;;;;;;5052555;28;20243;-40
2020/12/31 05:43:40;;;;;;;6.40;5.80;;;3.00;99.90;;;;;;5039753;28;20216;-41
2020/12/31 05:46:09;;;;;;;6.73;5.43;;;2.90;99.90;;;;;;5038849;28;20254;-40
2020/12/31 05:48:36;;;;;;;7.37;6.10;;;2.90;99.90;;;;;;5038691;28;20204;-41
2020/12/31 05:51:25;;;;;;;8.90;6.57;;;2.90;99.90;;;;;;5039414;28;20228;-40
2020/12/31 05:53:52;;;;;;;8.10;7.00;;;2.80;99.90;;;;;;5038351;28;20241;-40
2020/12/31 05:56:20;;;;;;;9.13;6.77;;;2.80;99.90;;;;;;5039672;28;20204;-40
2020/12/31 05:58:49;;;;;;;8.90;7.37;;;2.90;99.90;;;;;;5051143;28;20214;-39
2020/12/31 06:01:18;;;;;;;8.53;6.93;;;3.00;99.90;;;;;;5059310;28;20219;-43
2020/12/31 06:03:52;;;;;;;8.90;8.00;;;3.10;99.90;;;;;;5058748;28;20207;-40
2020/12/31 06:06:24;;;;;;;10.27;8.63;;;2.90;99.90;;;;;;5059696;28;20194;-41
2020/12/31 06:08:55;;;;;;;9.10;8.07;;;2.90;99.90;;;;;;5049300;28;20574;-41
2020/12/31 06:11:45;;;;;;;10.07;7.60;;;3.00;99.90;;;;;;5038670;28;20657;-39
2020/12/31 06:14:19;;;;;;;9.23;8.33;;;2.90;99.90;;;;;;5039667;28;20204;-40
2020/12/31 06:16:55;;;;;;;9.93;7.67;;;2.80;99.90;;;;;;5040959;28;20209;-42
2020/12/31 06:19:29;;;;;;;9.13;8.17;;;2.90;99.90;;;;;;5053088;28;20256;-40
2020/12/31 06:22:02;;;;;;;8.37;7.47;;;2.80;99.90;;;;;;5033378;28;20636;-40
2020/12/31 06:24:33;;;;;;;10.30;7.93;;;2.80;99.90;;;;;;5044577;28;20257;-40
2020/12/31 06:27:06;;;;;;;14.03;8.60;;;2.80;99.90;;;;;;5038055;28;20218;-40
2020/12/31 06:29:41;;;;;;;9.93;8.20;;;2.80;99.90;;;;;;5036362;28;20554;-39
2020/12/31 06:32:16;;;;;;;12.13;8.20;;;2.80;99.90;;;;;;5034495;28;20277;-41
2020/12/31 06:34:44;;;;;;;10.90;8.90;;;2.80;99.90;;;;;;5032455;28;20666;-41
2020/12/31 06:37:11;;;;;;;8.50;7.13;;;2.80;99.90;;;;;;5033538;28;20204;-42
2020/12/31 06:39:40;;;;;;;10.57;8.77;;;2.80;99.90;;;;;;5040039;28;20287;-40
2020/12/31 06:42:06;;;;;;;9.73;7.83;;;2.90;99.90;;;;;;5032797;28;20642;-40
2020/12/31 06:44:33;;;;;;;13.00;8.73;;;3.00;99.90;;;;;;5033276;28;20207;-40
2020/12/31 06:47:02;;;;;;;9.53;8.50;;;3.00;99.90;;;;;;5032886;28;20204;-41
2020/12/31 06:49:52;;;;;;;9.53;8.30;;;3.00;99.90;;;;;;5036378;28;20327;-39
2020/12/31 06:52:20;;;;;;;10.50;9.37;;;3.10;99.90;;;;;;5036319;28;20635;-40
2020/12/31 06:54:47;;;;;;;9.50;8.47;;;2.90;99.90;;;;;;5057895;28;20245;-40
2020/12/31 06:57:35;;;;;;;11.80;8.60;;;3.00;99.90;;;;;;5055990;28;20434;-43
2020/12/31 07:00:03;;;;;;;9.97;8.97;;;3.10;99.90;;;;;;5048955;28;20249;-42
2020/12/31 07:02:44;;;;;;;11.47;8.87;;;3.00;99.90;;;;;;5037815;28;20227;-39
2020/12/31 07:05:20;;;;;;;9.73;8.73;;;3.10;99.90;;;;;;5038586;28;20663;-40
2020/12/31 07:07:47;;;;;;;12.87;9.53;;;2.90;99.90;;;;;;5052552;28;20211;-40
2020/12/31 07:10:13;;;;;;;14.35;9.70;;;2.90;99.90;;;;;;5051552;28;20235;-40
2020/12/31 07:12:45;;;;;;;9.47;8.20;;;3.00;99.90;;;;;;5050589;28;20226;-43
2020/12/31 07:15:15;;;;;;;11.17;9.10;;;2.90;99.90;;;;;;5051713;28;20233;-40
2020/12/31 07:17:43;;;;;;;11.40;8.63;;;2.80;99.90;;;;;;5050098;28;20198;-40
2020/12/31 07:20:11;;;;;;;9.20;8.17;;;2.90;99.90;;;;;;5034873;28;20219;-39
2020/12/31 07:22:38;;;;;;;11.93;8.67;;;2.90;99.90;;;;;;5032448;28;20709;-40
2020/12/31 07:25:07;;;;;;;8.43;7.53;;;2.80;99.90;;;;;;5039869;28;20321;-41
2020/12/31 07:27:35;;;;;;;8.93;7.97;;;2.90;99.90;;;;;;5051988;28;20210;-41
2020/12/31 07:30:10;;;;;;;10.13;7.90;;;3.00;99.90;;;;;;5031996;28;20222;-43
2020/12/31 07:32:58;;;;;;;9.97;8.97;;;3.10;99.90;;;;;;5034641;28;20535;-42
2020/12/31 07:35:27;;;;;;;9.40;8.27;;;3.10;99.90;;;;;;5031521;28;20254;-40
2020/12/31 07:37:55;;;;;;;9.87;8.20;;;3.10;99.90;;;;;;5031914;28;20573;-42
2020/12/31 07:40:33;;;;;;;11.60;7.60;;;3.10;99.90;;;;;;5034975;28;20686;-41
2020/12/31 07:43:01;;;;;;;9.73;8.27;;;3.10;99.90;;;;;;5038383;28;20214;-43
2020/12/31 07:45:28;;;;;;;9.43;8.47;;;3.20;99.90;;;;;;5052602;28;20220;-41
2020/12/31 07:47:56;;;;;;;8.20;7.33;;;3.30;99.90;;;;;;5033677;28;20207;-42
2020/12/31 07:50:23;;;;;;;10.20;9.20;;;3.30;99.90;;;;;;5031279;28;20631;-40
2020/12/31 07:52:50;;;;;;;10.43;9.43;;;3.30;99.90;;;;;;5032611;28;20210;-41
2020/12/31 07:55:17;;;;;;;8.10;7.07;;;3.30;99.90;;;;;;5043478;28;20191;-41
2020/12/31 07:57:44;;;;;;;13.67;7.97;;;3.40;99.90;;;;;;5035810;28;20196;-40
2020/12/31 08:00:13;;;;;;;11.82;7.88;;;3.30;99.90;;;;;;5013843;28;20271;-41
2020/12/31 08:02:46;;;;;;;8.67;7.70;;;3.40;99.90;;;;;;5033807;28;20234;-40
2020/12/31 08:05:14;;;;;;;10.30;8.30;;;3.30;99.90;;;;;;5049866;28;20226;-40
2020/12/31 08:07:41;;;;;;;8.77;7.63;;;3.20;99.90;;;;;;5051070;28;20277;-40
2020/12/31 08:10:09;;;;;;;8.90;7.93;;;3.20;99.90;;;;;;5051066;28;20262;-42
2020/12/31 08:12:38;;;;;;;9.30;8.40;;;3.20;99.90;;;;;;5046264;28;20574;-39
2020/12/31 08:15:06;;;;;;;12.27;8.63;;;3.20;99.90;;;;;;5030504;28;20203;-40
2020/12/31 08:17:32;;;;;;;9.13;8.23;;;3.20;99.90;;;;;;5041215;28;20278;-40
2020/12/31 08:20:01;;;;;;;10.90;8.37;;;3.20;99.90;;;;;;5037240;28;20202;-40
2020/12/31 08:22:40;;;;;;;10.47;9.30;;;3.30;99.90;;;;;;5042546;28;20250;-39
2020/12/31 08:25:10;;;;;;;10.63;8.73;;;3.30;99.90;;;;;;5023226;28;20203;-40
2020/12/31 08:27:39;;;;;;;11.03;8.20;;;3.40;99.90;;;;;;5030673;28;20203;-39
2020/12/31 08:30:08;;;;;;;9.20;8.07;;;3.30;99.90;;;;;;5030533;28;20709;-39
2020/12/31 08:32:50;;;;;;;9.60;8.03;;;3.30;99.90;;;;;;5030054;28;20252;-40
2020/12/31 08:35:22;;;;;;;11.50;10.10;;;3.30;99.90;;;;;;5030130;28;20290;-41
2020/12/31 08:38:02;;;;;;;10.57;9.17;;;3.30;99.90;;;;;;5033232;28;20208;-42
2020/12/31 08:40:30;;;;;;;10.40;9.40;;;3.40;99.90;;;;;;5036928;28;20290;-41
2020/12/31 08:42:57;;;;;;;10.20;8.67;;;3.40;99.90;;;;;;5034705;28;20724;-40
2020/12/31 08:45:26;;;;;;;10.37;8.17;;;3.40;99.90;;;;;;5034602;28;20200;-40
2020/12/31 08:47:53;;;;;;;10.57;8.73;;;3.50;99.90;;;;;;5037420;28;20241;-41
2020/12/31 08:50:19;;;;;;;11.00;9.07;;;3.40;99.90;;;;;;5020170;28;20224;-40
2020/12/31 08:52:46;;;;;;;10.30;9.23;;;3.40;99.90;;;;;;5014543;28;20264;-43
2020/12/31 08:55:13;;;;;;;13.40;8.80;;;3.50;99.90;;;;;;5037396;28;20208;-40
2020/12/31 08:57:40;;;;;;;9.77;8.10;;;3.40;99.90;;;;;;5016472;28;20199;-39
2020/12/31 09:00:08;;;;;;;8.73;7.85;;;3.50;99.90;;;;;;5043265;28;20737;-40
2020/12/31 09:02:34;;;;;;;11.57;8.57;;;3.50;99.90;;;;;;5040817;28;20316;-39
2020/12/31 09:05:15;;;;;;;9.70;8.73;;;3.50;99.90;;;;;;5053239;28;20456;-40
2020/12/31 09:07:42;;;;;;;11.93;10.33;;;3.50;99.90;;;;;;5040556;28;20681;-40
2020/12/31 09:10:15;;;;;;;10.97;9.83;;;3.50;99.90;;;;;;5035289;28;20224;-40
2020/12/31 09:12:43;;;;;;;13.37;9.20;;;3.60;99.90;;;;;;5054400;28;20199;-40
2020/12/31 09:15:18;;;;;;;10.20;9.10;;;3.60;99.90;;;;;;5035718;28;20223;-40
2020/12/31 09:17:46;;;;;;;11.53;9.67;;;3.60;99.90;;;;;;5053202;28;20260;-43
2020/12/31 09:20:24;;;;;;;11.20;10.00;;;3.70;99.90;;;;;;5028252;28;20204;-40
2020/12/31 09:22:51;;;;;;;11.83;10.63;;;3.80;99.90;;;;;;5034299;28;20211;-40
2020/12/31 09:25:20;;;;;;;10.80;9.77;;;3.80;99.90;;;;;;5035178;28;20678;-43
2020/12/31 09:27:47;;;;;;;10.07;9.07;;;3.90;99.90;;;;;;5037820;28;20203;-41
2020/12/31 09:30:16;;;;;;;11.27;10.10;;;3.90;99.90;;;;;;5051287;28;20720;-39
2020/12/31 09:32:47;;;;;;;13.10;10.77;;;4.00;99.90;;;;;;5048867;28;20598;-42
2020/12/31 09:35:14;;;;;;;10.77;9.67;;;4.00;99.90;;;;;;5034529;28;20203;-40
2020/12/31 09:37:48;;;;;;;11.10;9.87;;;4.00;99.90;;;;;;5049698;28;20748;-43
2020/12/31 09:40:15;;;;;;;11.77;10.40;;;4.30;99.90;;;;;;5053822;28;20209;-42
2020/12/31 09:42:43;;;;;;;11.23;10.17;;;4.10;99.90;;;;;;5052864;28;20229;-40
2020/12/31 09:45:09;;;;;;;10.60;9.60;;;4.10;99.90;;;;;;5051371;28;20650;-41
2020/12/31 09:47:36;;;;;;;12.90;10.33;;;4.00;99.90;;;;;;5046551;28;20207;-45
2020/12/31 09:50:04;;;;;;;10.90;9.90;;;4.10;99.90;;;;;;5038417;28;20224;-45
2020/12/31 09:52:32;;;;;;;11.23;10.10;;;4.00;99.90;;;;;;5032576;28;20336;-41
2020/12/31 09:54:59;;;;;;;10.73;9.70;;;3.90;99.90;;;;;;5033389;28;20196;-41
2020/12/31 09:57:26;;;;;;;11.60;9.93;;;4.00;99.90;;;;;;5033405;28;20303;-40
2020/12/31 09:59:53;;;;;;;11.27;10.07;;;4.00;99.90;;;;;;5050195;28;20661;-40
2020/12/31 10:02:20;;;;;;;11.37;9.77;;;3.90;99.90;;;;;;5042110;28;20239;-43
2020/12/31 10:04:46;;;;;;;11.17;10.00;;;3.90;99.90;;;;;;5032401;28;20212;-40
2020/12/31 10:07:13;;;;;;;11.67;10.13;;;3.90;99.90;;;;;;5046619;28;20230;-43
2020/12/31 10:09:40;;;;;;;9.77;8.73;;;4.00;99.90;;;;;;5046074;28;20216;-40
2020/12/31 10:12:06;;;;;;;10.63;9.37;;;4.10;99.90;;;;;;5044457;28;20219;-39
2020/12/31 10:14:33;;;;;;;10.37;9.37;;;4.00;99.90;;;;;;5042368;28;20204;-42
2020/12/31 10:17:00;;;;;;;10.67;8.80;;;4.00;99.90;;;;;;5035076;28;20196;-40
2020/12/31 10:19:27;;;;;;;9.03;8.17;;;4.00;99.90;;;;;;5036125;28;20203;-40
2020/12/31 10:21:53;;;;;;;10.40;8.03;;;4.00;99.90;;;;;;5014661;28;20244;-44
2020/12/31 10:24:20;;;;;;;9.87;8.63;;;4.00;99.90;;;;;;5011672;28;20220;-41
2020/12/31 10:26:47;;;;;;;9.43;8.23;;;4.00;99.90;;;;;;5037115;28;20218;-40
2020/12/31 10:29:14;;;;;;;9.27;7.70;;;4.00;99.90;;;;;;5026296;28;20198;-40
2020/12/31 10:31:42;;;;;;;8.63;7.73;;;4.10;99.90;;;;;;5052630;28;20627;-41
2020/12/31 10:34:10;;;;;;;8.63;7.73;;;4.10;99.90;;;;;;5052013;28;20577;-42
2020/12/31 10:36:36;;;;;;;8.17;6.57;;;4.10;99.90;;;;;;5039710;28;20204;-42
2020/12/31 10:39:03;;;;;;;10.40;7.50;;;4.20;99.90;;;;;;5036356;28;20284;-40
2020/12/31 10:41:30;;;;;;;8.43;7.63;;;4.30;99.90;;;;;;5033087;28;20227;-39
2020/12/31 10:43:58;;;;;;;8.50;6.83;;;4.20;99.90;;;;;;5045250;28;20249;-41
2020/12/31 10:46:25;;;;;;;8.17;7.27;;;4.20;99.90;;;;;;5052093;28;20844;-40
2020/12/31 10:48:52;;;;;;;7.60;6.90;;;4.20;99.90;;;;;;5049139;28;20223;-40
2020/12/31 10:51:20;;;;;;;8.23;7.00;;;4.10;99.90;;;;;;5052145;28;20231;-44
2020/12/31 10:53:46;;;;;;;7.30;6.60;;;4.20;99.90;;;;;;5050868;28;20212;-41
2020/12/31 10:56:19;;;;;;;7.33;6.63;;;4.20;99.90;;;;;;5053936;28;20202;-41
2020/12/31 10:58:45;;;;;;;9.20;7.47;;;4.20;99.90;;;;;;5040152;28;20311;-41
2020/12/31 11:01:13;;;;;;;7.23;6.50;;;4.20;99.90;;;;;;5043074;28;20226;-39
2020/12/31 11:03:41;;;;;;;8.97;6.67;;;4.30;99.90;;;;;;5038543;28;20214;-41
2020/12/31 11:06:08;;;;;;;7.50;6.83;;;4.20;99.90;;;;;;5032375;28;20368;-40
2020/12/31 11:08:35;;;;;;;7.00;6.40;;;4.20;99.90;;;;;;5015163;28;20273;-40
2020/12/31 11:11:02;;;;;;;6.30;5.70;;;4.30;99.90;;;;;;5039160;28;20227;-43
2020/12/31 11:13:28;;;;;;;6.73;6.13;;;4.30;99.90;;;;;;5039599;28;20689;-43
2020/12/31 11:15:57;;;;;;;6.27;5.60;;;4.30;99.90;;;;;;5051573;28;20717;-41
2020/12/31 11:18:24;;;;;;;6.33;5.50;;;4.30;99.90;;;;;;5052889;28;20204;-44
2020/12/31 11:20:54;;;;;;;8.17;7.37;;;4.40;99.90;;;;;;5051405;28;20273;-43
2020/12/31 11:23:20;;;;;;;5.75;5.25;;;4.40;99.90;;;;;;5036607;28;20235;-45
2020/12/31 11:25:48;;;;;;;6.15;5.47;;;4.40;99.90;;;;;;5034945;28;20615;-43
2020/12/31 11:28:14;;;;;;;5.77;5.20;;;4.40;99.90;;;;;;5023711;28;20579;-42
2020/12/31 11:30:41;;;;;;;5.90;4.72;;;4.50;99.90;;;;;;5031158;28;20227;-43
2020/12/31 11:33:07;;;;;;;5.67;5.07;;;4.40;99.90;;;;;;5027478;28;20250;-43
2020/12/31 11:35:34;;;;;;;6.50;4.97;;;4.40;99.90;;;;;;5028442;28;20258;-42
2020/12/31 11:38:00;;;;;;;7.27;5.50;;;4.40;99.90;;;;;;5030686;28;20210;-42
2020/12/31 11:40:27;;;;;;;5.87;5.27;;;4.40;99.90;;;;;;5030937;28;20651;-43
2020/12/31 11:42:55;;;;;;;5.17;4.73;;;4.30;99.90;;;;;;5030714;28;20196;-42
2020/12/31 11:45:21;;;;;;;6.67;4.80;;;4.50;99.90;;;;;;5030316;28;20279;-43
2020/12/31 11:47:48;;;;;;;6.17;4.77;;;4.50;99.90;;;;;;5013578;28;20204;-43
2020/12/31 11:50:15;;;;;;;5.10;4.38;;;4.50;99.90;;;;;;5032106;28;20311;-45
2020/12/31 11:52:41;;;;;;;5.23;4.20;;;4.40;99.90;;;;;;5029981;28;20188;-42
2020/12/31 11:55:09;;;;;;;5.07;4.43;;;4.40;99.90;;;;;;5029604;28;20198;-44
2020/12/31 11:57:36;;;;;;;5.77;4.37;;;4.40;99.90;;;;;;5033395;28;20202;-43
2020/12/31 12:00:04;;;;;;;8.03;4.90;;;4.50;99.90;;;;;;5050014;28;20195;-43
2020/12/31 12:02:31;;;;;;;5.30;4.83;;;4.60;99.90;;;;;;5030998;28;20281;-43
2020/12/31 12:04:58;;;;;;;6.10;4.47;;;4.60;99.90;;;;;;5031575;28;20564;-43
2020/12/31 12:07:24;;;;;;;6.00;4.50;;;4.50;99.90;;;;;;5042854;28;20200;-43
2020/12/31 12:09:51;;;;;;;5.50;4.47;;;4.60;99.90;;;;;;5040832;28;20215;-43
2020/12/31 12:12:19;;;;;;;7.13;6.43;;;4.60;99.90;;;;;;5049425;28;20541;-43
2020/12/31 12:14:46;;;;;;;10.63;8.03;;;4.60;99.90;;;;;;5023745;28;20212;-43
2020/12/31 12:17:13;;;;;;;17.50;12.47;;;4.60;99.90;;;;;;5031813;28;20276;-42
2020/12/31 12:19:39;;;;;;;7.27;6.27;;;4.70;99.90;;;;;;5034417;28;20215;-44
2020/12/31 12:22:06;;;;;;;5.25;4.60;;;4.70;99.90;;;;;;5033992;28;20223;-43
2020/12/31 12:24:33;;;;;;;5.30;4.63;;;4.70;99.90;;;;;;5029527;28;20226;-42
2020/12/31 12:26:59;;;;;;;6.87;4.50;;;4.80;99.90;;;;;;5032608;28;20199;-43
2020/12/31 12:29:26;;;;;;;5.00;4.27;;;4.90;99.90;;;;;;5031750;28;20307;-43
2020/12/31 12:31:52;;;;;;;6.73;4.87;;;5.00;99.90;;;;;;5033909;28;20215;-44
2020/12/31 12:34:20;;;;;;;5.00;4.23;;;5.00;99.90;;;;;;5036492;28;20230;-44
2020/12/31 12:36:49;;;;;;;4.53;4.13;;;5.10;99.90;;;;;;5017465;28;20204;-44
2020/12/31 12:39:16;;;;;;;5.90;5.17;;;5.10;99.90;;;;;;5037778;28;20646;-43
2020/12/31 12:41:43;;;;;;;5.95;4.13;;;5.20;99.90;;;;;;5045913;28;20227;-46
2020/12/31 12:44:10;;;;;;;4.87;4.37;;;5.40;99.90;;;;;;5055122;28;20199;-41
2020/12/31 12:46:36;;;;;;;5.20;4.03;;;5.40;99.90;;;;;;5049373;28;20578;-43
2020/12/31 12:49:03;;;;;;;6.87;4.53;;;5.10;99.90;;;;;;5042348;28;20199;-44
2020/12/31 12:51:31;;;;;;;4.80;4.20;;;5.10;99.90;;;;;;5034426;28;20231;-43
2020/12/31 12:53:58;;;;;;;4.43;4.03;;;5.10;99.90;;;;;;5034740;28;20329;-42